Time;durP1;ratioP1;P1;durP2;ratioP2;P2;SDS_P1;SDS_P2;PMS_P1;PMS_P2;Temp;Humidity;BMP_temperature;BMP_pressure;BME280_temperature;BME280_humidity;BME280_pressure;Samples;Min_cycle;Max_cycle;Signal;HPM_P1;HPM_P2
2022/09/10 00:00:59;;;;;;;7.10;4.05;;;14.80;99.90;;;;;;5075569;28;20563;-70
2022/09/10 00:03:25;;;;;;;10.45;4.05;;;14.80;99.90;;;;;;5076603;28;20186;-69
2022/09/10 00:05:51;;;;;;;8.98;4.03;;;14.80;99.90;;;;;;5079811;28;20259;-69
2022/09/10 00:08:17;;;;;;;7.32;3.72;;;14.80;99.90;;;;;;5096715;28;20712;-69
2022/09/10 00:10:50;;;;;;;6.35;3.80;;;14.80;99.90;;;;;;5096417;28;20180;-69
2022/09/10 00:13:18;;;;;;;12.00;4.20;;;14.90;99.90;;;;;;5096297;28;20249;-69
2022/09/10 00:15:50;;;;;;;5.10;3.63;;;14.80;99.90;;;;;;5096268;28;20177;-69
2022/09/10 00:18:19;;;;;;;7.57;3.70;;;14.80;99.90;;;;;;5094959;28;20200;-69
2022/09/10 00:20:55;;;;;;;10.40;4.00;;;14.80;99.90;;;;;;5094977;28;20181;-69
2022/09/10 00:23:25;;;;;;;10.25;3.97;;;14.90;99.90;;;;;;5096132;28;20163;-69
2022/09/10 00:25:53;;;;;;;6.22;3.85;;;14.80;99.90;;;;;;5094972;28;20559;-69
2022/09/10 00:28:24;;;;;;;8.68;4.53;;;14.80;99.90;;;;;;5080822;28;20206;-69
2022/09/10 00:30:52;;;;;;;8.82;3.90;;;14.80;99.90;;;;;;5074540;28;20287;-69
2022/09/10 00:33:18;;;;;;;6.32;3.70;;;14.80;99.90;;;;;;5074377;28;20181;-69
2022/09/10 00:35:45;;;;;;;10.18;3.88;;;14.80;99.90;;;;;;5078373;28;20181;-70
2022/09/10 00:38:12;;;;;;;5.95;3.67;;;14.80;99.90;;;;;;5095912;28;20225;-69
2022/09/10 00:40:39;;;;;;;8.77;3.40;;;14.80;99.90;;;;;;5095707;28;20188;-69
2022/09/10 00:43:13;;;;;;;8.40;3.53;;;14.80;99.90;;;;;;5096099;28;20259;-69
2022/09/10 00:45:42;;;;;;;4.90;3.22;;;14.80;99.90;;;;;;5095508;28;20284;-69
2022/09/10 00:48:20;;;;;;;4.65;3.50;;;14.80;99.90;;;;;;5095765;28;20271;-68
2022/09/10 00:50:50;;;;;;;5.70;2.90;;;14.80;99.90;;;;;;5095620;28;20218;-70
2022/09/10 00:53:20;;;;;;;9.93;3.55;;;14.80;99.90;;;;;;5095777;28;20667;-69
2022/09/10 00:55:49;;;;;;;7.75;3.60;;;14.80;99.90;;;;;;5095769;28;20217;-69
2022/09/10 00:58:17;;;;;;;6.65;3.70;;;14.80;99.90;;;;;;5082222;28;20208;-69
2022/09/10 01:00:44;;;;;;;6.45;3.45;;;14.80;99.90;;;;;;5075062;28;20188;-69
2022/09/10 01:03:12;;;;;;;5.32;3.47;;;14.80;99.90;;;;;;5075119;28;20181;-69
2022/09/10 01:05:41;;;;;;;5.10;3.35;;;14.80;99.90;;;;;;5075567;28;20201;-70
2022/09/10 01:08:12;;;;;;;8.20;3.15;;;14.80;99.90;;;;;;5093633;28;20284;-69
2022/09/10 01:11:06;;;;;;;4.78;3.45;;;14.80;99.90;;;;;;5093302;28;20256;-69
2022/09/10 01:13:39;;;;;;;5.90;3.50;;;14.80;99.90;;;;;;5094801;28;20189;-69
2022/09/10 01:16:31;;;;;;;7.53;3.60;;;14.80;99.90;;;;;;5093784;28;20188;-69
2022/09/10 01:19:23;;;;;;;8.30;3.22;;;14.70;99.90;;;;;;5093700;28;20200;-69
2022/09/10 01:22:09;;;;;;;14.45;3.60;;;14.70;99.90;;;;;;5093519;28;20563;-69
2022/09/10 01:25:02;;;;;;;3.92;3.13;;;14.80;99.90;;;;;;5095517;28;20253;-69
2022/09/10 01:27:47;;;;;;;4.47;3.25;;;14.80;99.90;;;;;;5088505;28;20257;-69
2022/09/10 01:30:19;;;;;;;5.65;3.00;;;14.80;99.90;;;;;;5075076;28;20157;-69
2022/09/10 01:32:49;;;;;;;6.97;3.25;;;14.80;99.90;;;;;;5074779;28;20218;-69
2022/09/10 01:35:36;;;;;;;7.03;3.40;;;14.80;99.90;;;;;;5073382;28;20170;-69
2022/09/10 01:38:10;;;;;;;5.30;3.10;;;14.70;99.90;;;;;;5093927;28;20644;-69
2022/09/10 01:40:37;;;;;;;5.90;3.28;;;14.70;99.90;;;;;;5094229;28;20188;-68
2022/09/10 01:43:06;;;;;;;5.05;3.33;;;14.60;99.90;;;;;;5094981;28;20257;-69
2022/09/10 01:45:44;;;;;;;11.18;3.65;;;14.60;99.90;;;;;;5093215;28;20197;-69
2022/09/10 01:48:22;;;;;;;5.75;3.65;;;14.60;99.90;;;;;;5094857;28;20223;-69
2022/09/10 01:51:34;;;;;;;6.50;3.38;;;14.60;99.90;;;;;;5093539;28;20162;-69
2022/09/10 01:54:25;;;;;;;3.50;3.20;;;14.60;99.90;;;;;;5092962;28;20181;-69
2022/09/10 01:57:20;;;;;;;6.00;3.55;;;14.60;99.90;;;;;;5073777;28;20668;-70
2022/09/10 02:00:00;;;;;;;7.22;3.47;;;14.50;99.90;;;;;;5056237;28;20215;-69
2022/09/10 02:02:32;;;;;;;6.43;3.50;;;14.50;99.90;;;;;;5062469;28;20226;-69
2022/09/10 02:05:00;;;;;;;4.80;3.35;;;14.50;99.90;;;;;;5073214;28;20537;-69
2022/09/10 02:07:28;;;;;;;6.50;3.55;;;14.50;99.90;;;;;;5090906;28;20712;-69
2022/09/10 02:09:54;;;;;;;5.25;3.42;;;14.50;99.90;;;;;;5094392;28;20169;-69
2022/09/10 02:12:21;;;;;;;7.32;4.03;;;14.50;99.90;;;;;;5093379;28;20760;-69
2022/09/10 02:14:49;;;;;;;8.32;3.60;;;14.50;99.90;;;;;;5094569;28;20204;-69
2022/09/10 02:17:15;;;;;;;5.63;3.00;;;14.50;99.90;;;;;;5094590;28;20284;-69
2022/09/10 02:19:44;;;;;;;6.43;3.30;;;14.60;99.90;;;;;;5094704;28;20191;-69
2022/09/10 02:22:11;;;;;;;5.22;3.55;;;14.60;99.90;;;;;;5092728;28;20169;-69
2022/09/10 02:24:37;;;;;;;5.07;3.30;;;14.60;99.90;;;;;;5093047;28;20250;-69
2022/09/10 02:27:05;;;;;;;6.05;3.15;;;14.60;99.90;;;;;;5089482;28;20613;-69
2022/09/10 02:29:32;;;;;;;7.43;3.40;;;14.60;99.90;;;;;;5073141;28;20174;-69
2022/09/10 02:31:58;;;;;;;6.60;3.40;;;14.60;99.90;;;;;;5074284;28;20192;-69
2022/09/10 02:34:24;;;;;;;5.50;3.20;;;14.60;99.90;;;;;;5074742;28;20166;-69
2022/09/10 02:36:50;;;;;;;6.28;3.28;;;14.60;99.90;;;;;;5087383;28;20177;-70
2022/09/10 02:39:15;;;;;;;4.25;3.22;;;14.60;99.90;;;;;;5093855;28;20649;-70
2022/09/10 02:41:41;;;;;;;4.57;3.20;;;14.60;99.90;;;;;;5095134;28;20189;-68
2022/09/10 02:44:07;;;;;;;7.32;3.35;;;14.60;99.90;;;;;;5095248;28;20177;-68
2022/09/10 02:46:33;;;;;;;4.38;3.35;;;14.60;99.90;;;;;;5094092;28;20197;-69
2022/09/10 02:48:59;;;;;;;4.13;3.20;;;14.60;99.90;;;;;;5092882;28;20563;-69
2022/09/10 02:51:25;;;;;;;3.50;2.92;;;14.60;99.90;;;;;;5094158;28;20633;-69
2022/09/10 02:53:50;;;;;;;4.13;3.10;;;14.60;99.90;;;;;;5094240;28;20187;-69
2022/09/10 02:56:18;;;;;;;5.20;3.53;;;14.60;99.90;;;;;;5093178;28;20592;-69
2022/09/10 02:58:44;;;;;;;4.40;3.20;;;14.60;99.90;;;;;;5075887;28;20213;-69
2022/09/10 03:01:15;;;;;;;6.05;3.80;;;14.60;99.90;;;;;;5074090;28;20176;-69
2022/09/10 03:03:41;;;;;;;5.72;3.75;;;14.60;99.90;;;;;;5072719;28;20605;-69
2022/09/10 03:06:08;;;;;;;6.38;3.40;;;14.50;99.90;;;;;;5079441;28;20228;-69
2022/09/10 03:08:34;;;;;;;6.10;3.88;;;14.50;99.90;;;;;;5092535;28;20193;-69
2022/09/10 03:11:00;;;;;;;4.43;3.40;;;14.50;99.90;;;;;;5093969;28;20188;-69
2022/09/10 03:13:27;;;;;;;5.13;4.00;;;14.50;99.90;;;;;;5094414;28;20173;-69
2022/09/10 03:15:54;;;;;;;6.63;4.07;;;14.50;99.90;;;;;;5093738;28;20177;-69
2022/09/10 03:18:21;;;;;;;4.28;3.42;;;14.60;99.90;;;;;;5094239;28;20193;-69
2022/09/10 03:20:48;;;;;;;5.60;3.83;;;14.60;99.90;;;;;;5093785;28;20169;-69
2022/09/10 03:23:14;;;;;;;4.65;3.33;;;14.50;99.90;;;;;;5093618;28;20577;-69
2022/09/10 03:25:40;;;;;;;7.10;3.65;;;14.50;99.90;;;;;;5093589;28;20632;-69
2022/09/10 03:28:06;;;;;;;6.20;3.83;;;14.60;99.90;;;;;;5081628;28;20194;-69
2022/09/10 03:30:32;;;;;;;7.30;3.65;;;14.50;99.90;;;;;;5073159;28;20185;-69
2022/09/10 03:32:58;;;;;;;5.15;3.55;;;14.50;99.90;;;;;;5073236;28;20188;-69
2022/09/10 03:35:24;;;;;;;4.97;3.40;;;14.60;99.90;;;;;;5075582;28;20507;-69
2022/09/10 03:37:49;;;;;;;6.85;3.55;;;14.60;99.90;;;;;;5096099;28;20208;-69
2022/09/10 03:40:15;;;;;;;3.90;3.50;;;14.60;99.90;;;;;;5097138;28;20533;-69
2022/09/10 03:42:41;;;;;;;4.65;3.42;;;14.60;99.90;;;;;;5095788;28;20173;-69
2022/09/10 03:45:08;;;;;;;8.10;3.88;;;14.60;99.90;;;;;;5096931;28;20652;-69
2022/09/10 03:47:36;;;;;;;4.32;3.35;;;14.60;99.90;;;;;;5096820;28;20254;-69
2022/09/10 03:50:03;;;;;;;3.60;3.28;;;14.50;99.90;;;;;;5095637;28;20203;-69
2022/09/10 03:52:29;;;;;;;6.03;3.75;;;14.60;99.90;;;;;;5096791;28;20198;-69
2022/09/10 03:54:55;;;;;;;4.05;3.65;;;14.60;99.90;;;;;;5096788;28;20177;-68
2022/09/10 03:57:22;;;;;;;4.10;3.70;;;14.60;99.90;;;;;;5091025;28;20274;-69
2022/09/10 03:59:48;;;;;;;4.93;3.78;;;14.60;99.90;;;;;;5076460;28;20563;-69
2022/09/10 04:02:15;;;;;;;7.65;3.97;;;14.60;99.90;;;;;;5075992;28;20177;-69
2022/09/10 04:04:41;;;;;;;7.13;4.82;;;14.60;99.90;;;;;;5076220;28;20178;-69
2022/09/10 04:07:09;;;;;;;5.00;4.50;;;14.60;99.90;;;;;;5090143;28;20254;-69
2022/09/10 04:09:35;;;;;;;7.13;4.75;;;14.60;99.90;;;;;;5096665;28;20169;-69
2022/09/10 04:12:02;;;;;;;6.22;4.40;;;14.60;99.90;;;;;;5096762;28;20531;-69
2022/09/10 04:14:28;;;;;;;6.47;4.90;;;14.60;99.90;;;;;;5095111;28;20177;-69
2022/09/10 04:16:57;;;;;;;5.40;4.90;;;14.60;99.90;;;;;;5094684;28;20191;-69
2022/09/10 04:19:23;;;;;;;6.22;4.90;;;14.60;99.90;;;;;;5096114;28;20169;-68
2022/09/10 04:21:51;;;;;;;6.03;4.85;;;14.50;99.90;;;;;;5096334;28;20180;-69
2022/09/10 04:24:17;;;;;;;7.68;5.03;;;14.60;99.90;;;;;;5096387;28;20177;-69
2022/09/10 04:26:43;;;;;;;7.20;5.20;;;14.60;99.90;;;;;;5094255;28;20201;-69
2022/09/10 04:29:09;;;;;;;7.13;5.03;;;14.60;99.90;;;;;;5075594;28;20207;-68
2022/09/10 04:31:35;;;;;;;7.57;5.30;;;14.50;99.90;;;;;;5075428;28;20177;-69
2022/09/10 04:34:00;;;;;;;6.40;4.90;;;14.50;99.90;;;;;;5075584;28;20260;-69
2022/09/10 04:36:26;;;;;;;7.65;5.20;;;14.50;99.90;;;;;;5084208;28;20672;-69
2022/09/10 04:38:52;;;;;;;6.97;5.13;;;14.50;99.90;;;;;;5096058;28;20615;-69
2022/09/10 04:41:19;;;;;;;7.63;5.00;;;14.50;99.90;;;;;;5094412;28;20193;-68
2022/09/10 04:43:45;;;;;;;5.93;5.32;;;14.50;99.90;;;;;;5095782;28;20602;-68
2022/09/10 04:46:11;;;;;;;8.30;5.63;;;14.50;99.90;;;;;;5095085;28;20275;-68
2022/09/10 04:48:37;;;;;;;7.82;5.50;;;14.40;99.90;;;;;;5094348;28;20768;-68
2022/09/10 04:51:03;;;;;;;12.20;5.18;;;14.40;99.90;;;;;;5094509;28;20162;-68
2022/09/10 04:53:30;;;;;;;6.28;5.38;;;14.40;99.90;;;;;;5094179;28;20184;-69
2022/09/10 04:55:56;;;;;;;6.35;5.15;;;14.40;99.90;;;;;;5095449;28;20173;-68
2022/09/10 04:58:22;;;;;;;8.43;4.97;;;14.40;99.90;;;;;;5079789;28;20210;-69
2022/09/10 05:00:48;;;;;;;6.93;5.47;;;14.40;99.90;;;;;;5075099;28;20174;-69
2022/09/10 05:03:14;;;;;;;6.18;5.07;;;14.50;99.90;;;;;;5058957;28;20186;-69
2022/09/10 05:05:41;;;;;;;9.52;5.30;;;14.50;99.90;;;;;;5058869;28;20202;-69
2022/09/10 05:08:08;;;;;;;7.57;5.00;;;14.50;99.90;;;;;;5093896;28;20193;-69
2022/09/10 05:10:37;;;;;;;8.43;5.45;;;14.50;99.90;;;;;;5095482;28;20641;-67
2022/09/10 05:13:02;;;;;;;7.20;5.10;;;14.50;99.90;;;;;;5095566;28;20260;-68
2022/09/10 05:15:28;;;;;;;6.97;5.57;;;14.50;99.90;;;;;;5093581;28;20261;-67
2022/09/10 05:17:54;;;;;;;7.00;4.93;;;14.50;99.90;;;;;;5095128;28;20189;-67
2022/09/10 05:20:23;;;;;;;7.55;4.78;;;14.50;99.90;;;;;;5094077;28;20177;-68
2022/09/10 05:22:49;;;;;;;4.85;4.30;;;14.50;99.90;;;;;;5093578;28;20170;-68
2022/09/10 05:25:15;;;;;;;5.63;4.65;;;14.50;99.90;;;;;;5093488;28;20194;-69
2022/09/10 05:27:41;;;;;;;6.97;4.55;;;14.50;99.90;;;;;;5086671;28;20280;-71
2022/09/10 05:30:07;;;;;;;5.05;4.55;;;14.50;99.90;;;;;;5074454;28;20181;-71
2022/09/10 05:32:33;;;;;;;7.78;4.18;;;14.50;99.90;;;;;;5074951;28;20247;-71
2022/09/10 05:35:00;;;;;;;4.72;4.30;;;14.50;99.90;;;;;;5073569;28;20260;-72
2022/09/10 05:37:26;;;;;;;5.20;4.40;;;14.50;99.90;;;;;;5091753;28;20563;-71
2022/09/10 05:39:52;;;;;;;5.60;4.32;;;14.50;99.90;;;;;;5093725;28;20201;-72
2022/09/10 05:42:20;;;;;;;6.68;4.15;;;14.60;99.90;;;;;;5095531;28;20244;-72
2022/09/10 05:44:46;;;;;;;5.25;4.70;;;14.60;99.90;;;;;;5095296;28;20154;-71
2022/09/10 05:47:12;;;;;;;5.60;4.13;;;14.60;99.90;;;;;;5094724;28;20681;-72
2022/09/10 05:49:37;;;;;;;5.53;3.83;;;14.60;99.90;;;;;;5095535;28;20168;-71
2022/09/10 05:52:03;;;;;;;5.60;3.97;;;14.70;99.90;;;;;;5095048;28;20173;-72
2022/09/10 05:54:29;;;;;;;4.82;3.88;;;14.70;99.90;;;;;;5094758;28;20641;-71
2022/09/10 05:56:57;;;;;;;5.57;3.90;;;14.70;99.90;;;;;;5092331;28;20622;-71
2022/09/10 05:59:23;;;;;;;5.40;3.72;;;14.70;99.90;;;;;;5072969;28;20205;-71
2022/09/10 06:01:50;;;;;;;5.55;3.85;;;14.70;99.90;;;;;;5073928;28;20231;-71
2022/09/10 06:04:19;;;;;;;5.43;3.90;;;14.70;99.90;;;;;;5073447;28;20713;-72
2022/09/10 06:06:46;;;;;;;5.10;3.90;;;14.70;99.90;;;;;;5085240;28;20224;-71
2022/09/10 06:09:13;;;;;;;4.43;4.03;;;14.80;99.90;;;;;;5094123;28;20189;-72
2022/09/10 06:11:39;;;;;;;6.20;4.10;;;14.80;99.90;;;;;;5092819;28;20165;-71
2022/09/10 06:14:05;;;;;;;4.22;3.83;;;14.80;99.90;;;;;;5092694;28;20209;-72
2022/09/10 06:16:31;;;;;;;4.53;4.13;;;14.80;99.90;;;;;;5092655;28;20702;-71
2022/09/10 06:18:58;;;;;;;5.55;4.43;;;14.80;99.90;;;;;;5094060;28;20689;-72
2022/09/10 06:21:23;;;;;;;4.88;4.05;;;14.80;99.90;;;;;;5092615;28;20559;-71
2022/09/10 06:23:53;;;;;;;7.30;4.68;;;14.80;99.90;;;;;;5092576;28;20176;-72
2022/09/10 06:26:19;;;;;;;7.38;5.03;;;14.80;99.90;;;;;;5094115;28;20204;-71
2022/09/10 06:28:46;;;;;;;7.00;5.00;;;14.80;99.90;;;;;;5076312;28;20197;-71
2022/09/10 06:31:22;;;;;;;5.47;4.93;;;14.80;99.90;;;;;;5073292;28;20178;-71
2022/09/10 06:33:48;;;;;;;9.13;6.15;;;14.70;99.90;;;;;;5073868;28;20163;-71
2022/09/10 06:36:14;;;;;;;12.20;7.28;;;14.60;99.90;;;;;;5080466;28;20181;-71
2022/09/10 06:38:40;;;;;;;7.28;6.43;;;14.50;99.90;;;;;;5093727;28;20242;-71
2022/09/10 06:41:15;;;;;;;8.02;6.93;;;14.40;99.90;;;;;;5092509;28;20288;-67
2022/09/10 06:43:42;;;;;;;8.88;7.07;;;14.30;99.90;;;;;;5094442;28;20168;-67
2022/09/10 06:46:17;;;;;;;12.07;7.55;;;14.30;99.90;;;;;;5093791;28;20276;-71
2022/09/10 06:48:44;;;;;;;10.38;7.55;;;14.30;99.90;;;;;;5093826;28;20192;-69
2022/09/10 06:51:11;;;;;;;14.02;9.15;;;14.30;99.90;;;;;;5094198;28;20218;-69
2022/09/10 06:53:39;;;;;;;12.07;9.43;;;14.30;99.90;;;;;;5093523;28;20668;-69
2022/09/10 06:56:09;;;;;;;14.15;10.05;;;14.20;99.90;;;;;;5094079;28;20169;-68
2022/09/10 06:58:35;;;;;;;15.18;10.80;;;14.20;99.90;;;;;;5076870;28;20250;-69
2022/09/10 07:01:09;;;;;;;18.38;11.43;;;14.20;99.90;;;;;;5071617;28;20184;-70
2022/09/10 07:03:35;;;;;;;18.55;12.73;;;14.20;99.90;;;;;;5072384;28;20192;-68
2022/09/10 07:06:04;;;;;;;18.48;12.65;;;14.20;99.90;;;;;;5080618;28;20229;-68
2022/09/10 07:08:30;;;;;;;15.10;12.10;;;14.20;99.90;;;;;;5095918;28;20197;-67
2022/09/10 07:11:00;;;;;;;18.30;13.23;;;14.20;99.90;;;;;;5097490;28;20660;-67
2022/09/10 07:13:26;;;;;;;17.58;14.07;;;14.30;99.90;;;;;;5096712;28;20229;-68
2022/09/10 07:15:52;;;;;;;17.40;12.80;;;14.40;99.90;;;;;;5096944;28;20657;-70
2022/09/10 07:18:18;;;;;;;22.05;14.00;;;14.40;99.90;;;;;;5096096;28;20201;-70
2022/09/10 07:20:45;;;;;;;18.88;13.75;;;14.40;99.90;;;;;;5097783;28;20258;-70
2022/09/10 07:23:12;;;;;;;17.13;13.70;;;14.50;99.90;;;;;;5097046;28;20184;-70
2022/09/10 07:25:39;;;;;;;21.05;13.77;;;14.60;99.90;;;;;;5097314;28;20653;-70
2022/09/10 07:28:06;;;;;;;21.80;14.85;;;14.50;99.90;;;;;;5083810;28;20681;-70
2022/09/10 07:30:34;;;;;;;19.55;15.13;;;14.60;99.90;;;;;;5076599;28;20231;-70
2022/09/10 07:33:00;;;;;;;21.55;14.60;;;14.60;99.90;;;;;;5075516;28;20549;-70
2022/09/10 07:35:26;;;;;;;22.77;14.93;;;14.70;99.90;;;;;;5075661;28;20227;-70
2022/09/10 07:37:51;;;;;;;20.75;14.55;;;14.70;99.90;;;;;;5095561;28;20205;-70
2022/09/10 07:40:18;;;;;;;21.65;14.40;;;14.80;99.90;;;;;;5095476;28;20246;-70
2022/09/10 07:42:44;;;;;;;20.60;15.90;;;14.90;99.90;;;;;;5095631;28;20575;-70
2022/09/10 07:45:14;;;;;;;18.88;14.30;;;14.80;99.90;;;;;;5095641;28;20180;-70
2022/09/10 07:47:43;;;;;;;19.00;13.00;;;14.70;99.90;;;;;;5096522;28;20201;-69
2022/09/10 07:50:09;;;;;;;21.35;13.38;;;14.80;99.90;;;;;;5095432;28;20177;-70
2022/09/10 07:52:35;;;;;;;15.10;13.00;;;14.70;99.90;;;;;;5096866;28;20661;-69
2022/09/10 07:55:01;;;;;;;17.40;13.20;;;14.70;99.90;;;;;;5096841;28;20642;-69
2022/09/10 07:57:28;;;;;;;15.00;12.30;;;14.60;99.90;;;;;;5090089;28;20221;-70
2022/09/10 07:59:54;;;;;;;18.85;13.68;;;14.60;99.90;;;;;;5076388;28;20169;-70
2022/09/10 08:02:20;;;;;;;17.17;12.52;;;14.70;99.90;;;;;;5076143;28;20642;-70
2022/09/10 08:04:46;;;;;;;16.48;12.85;;;14.70;99.90;;;;;;5076287;28;20672;-70
2022/09/10 08:07:12;;;;;;;17.98;12.40;;;14.70;99.90;;;;;;5089675;28;20220;-70
2022/09/10 08:09:38;;;;;;;16.42;12.00;;;14.60;99.90;;;;;;5096654;28;20195;-69
2022/09/10 08:12:06;;;;;;;17.05;12.63;;;14.60;99.90;;;;;;5096656;28;20165;-70
2022/09/10 08:14:32;;;;;;;15.60;11.70;;;14.60;99.90;;;;;;5096986;28;20156;-70
2022/09/10 08:16:57;;;;;;;15.25;12.25;;;14.60;99.90;;;;;;5096085;28;20597;-70
2022/09/10 08:19:23;;;;;;;18.30;12.40;;;14.60;99.90;;;;;;5096876;28;20607;-70
2022/09/10 08:21:50;;;;;;;17.73;11.45;;;14.70;99.90;;;;;;5096391;28;20169;-70
2022/09/10 08:24:15;;;;;;;16.90;12.10;;;14.70;99.90;;;;;;5096117;28;20177;-70
2022/09/10 08:26:41;;;;;;;17.48;12.98;;;14.80;99.90;;;;;;5095481;28;20197;-70
2022/09/10 08:29:07;;;;;;;16.50;12.70;;;15.00;99.90;;;;;;5074954;28;20200;-70
2022/09/10 08:31:33;;;;;;;18.85;12.98;;;15.20;99.90;;;;;;5075758;28;20206;-70
2022/09/10 08:33:59;;;;;;;17.98;13.10;;;15.40;99.90;;;;;;5076051;28;20197;-70
2022/09/10 08:36:25;;;;;;;17.90;13.98;;;15.70;99.90;;;;;;5084068;28;20181;-70
2022/09/10 08:38:52;;;;;;;17.08;14.23;;;15.90;99.90;;;;;;5094735;28;20288;-70
2022/09/10 08:41:37;;;;;;;15.80;13.90;;;16.00;99.90;;;;;;5094653;28;20247;-70
2022/09/10 08:44:12;;;;;;;19.80;13.57;;;15.90;99.90;;;;;;5096141;28;20165;-70
2022/09/10 08:46:55;;;;;;;17.30;13.65;;;15.80;99.90;;;;;;5095567;28;20294;-71
2022/09/10 08:49:39;;;;;;;18.73;12.85;;;15.80;99.90;;;;;;5094596;28;20196;-70
2022/09/10 08:52:20;;;;;;;17.42;13.43;;;15.60;99.90;;;;;;5094567;28;20170;-70
2022/09/10 08:55:06;;;;;;;18.58;12.52;;;15.70;99.90;;;;;;5094504;28;20173;-70
2022/09/10 08:58:06;;;;;;;14.57;12.55;;;15.60;99.90;;;;;;5087569;28;20309;-70
2022/09/10 09:00:36;;;;;;;16.25;12.50;;;15.50;99.90;;;;;;5075098;28;20186;-71
2022/09/10 09:03:02;;;;;;;17.58;13.02;;;15.40;99.90;;;;;;5073797;28;20182;-71
2022/09/10 09:05:38;;;;;;;15.05;12.23;;;15.40;99.90;;;;;;5075609;28;20537;-71
2022/09/10 09:08:05;;;;;;;14.20;12.15;;;15.30;99.90;;;;;;5095926;28;20193;-71
2022/09/10 09:10:39;;;;;;;16.58;12.82;;;15.30;99.90;;;;;;5094213;28;20179;-71
2022/09/10 09:13:30;;;;;;;14.98;13.10;;;15.30;99.90;;;;;;5095707;28;20176;-70
2022/09/10 09:15:56;;;;;;;18.60;12.82;;;15.50;99.90;;;;;;5094515;28;20256;-71
2022/09/10 09:18:47;;;;;;;20.05;13.27;;;15.50;99.90;;;;;;5095700;28;20612;-70
2022/09/10 09:21:17;;;;;;;16.45;12.98;;;15.50;99.90;;;;;;5094136;28;20625;-70
2022/09/10 09:23:54;;;;;;;19.05;12.73;;;15.50;99.90;;;;;;5095135;28;20177;-70
2022/09/10 09:26:50;;;;;;;15.15;13.25;;;15.60;99.90;;;;;;5095097;28;20661;-70
2022/09/10 09:29:46;;;;;;;15.13;12.05;;;15.60;99.90;;;;;;5066951;28;20215;-70
2022/09/10 09:32:15;;;;;;;18.55;13.32;;;15.80;99.90;;;;;;5052744;28;20269;-70
2022/09/10 09:34:49;;;;;;;15.52;12.00;;;15.90;99.90;;;;;;5053492;28;20174;-71
2022/09/10 09:37:36;;;;;;;16.15;12.55;;;15.90;99.90;;;;;;5083652;28;20262;-71
2022/09/10 09:40:13;;;;;;;14.55;12.30;;;15.80;99.90;;;;;;5094733;28;20562;-71
2022/09/10 09:42:51;;;;;;;13.40;11.98;;;15.80;99.90;;;;;;5095690;28;20494;-70
2022/09/10 09:45:20;;;;;;;14.25;12.70;;;15.80;99.90;;;;;;5093402;28;20177;-70
2022/09/10 09:47:48;;;;;;;17.35;14.25;;;15.90;99.90;;;;;;5094164;28;20205;-71
2022/09/10 09:50:17;;;;;;;17.70;13.90;;;15.90;99.90;;;;;;5093419;28;20585;-70
2022/09/10 09:52:43;;;;;;;12.75;10.13;;;16.00;99.90;;;;;;5094356;28;20625;-70
2022/09/10 09:55:39;;;;;;;10.32;9.15;;;16.10;99.90;;;;;;5094382;28;20188;-70
2022/09/10 09:58:23;;;;;;;10.73;8.50;;;16.20;99.90;;;;;;5081408;28;20300;-70
2022/09/10 10:01:09;;;;;;;11.52;9.15;;;16.30;99.90;;;;;;5075126;28;20181;-70
2022/09/10 10:04:00;;;;;;;12.07;8.80;;;16.30;99.90;;;;;;5074970;28;20744;-70
2022/09/10 10:06:32;;;;;;;9.25;8.32;;;16.30;99.90;;;;;;5082492;28;20201;-70
2022/09/10 10:09:19;;;;;;;9.45;8.55;;;16.30;99.90;;;;;;5093927;28;20261;-70
2022/09/10 10:11:53;;;;;;;9.57;8.68;;;16.40;99.90;;;;;;5093012;28;20173;-70
2022/09/10 10:14:21;;;;;;;14.43;9.20;;;16.40;99.90;;;;;;5093960;28;20248;-70
2022/09/10 10:16:53;;;;;;;9.30;7.95;;;16.30;99.90;;;;;;5093788;28;20196;-70
2022/09/10 10:19:58;;;;;;;9.85;8.35;;;16.30;99.90;;;;;;5092601;28;20173;-70
2022/09/10 10:22:25;;;;;;;10.52;8.63;;;16.30;99.90;;;;;;5092542;28;20254;-70
2022/09/10 10:24:53;;;;;;;11.07;8.82;;;16.30;99.90;;;;;;5094381;28;20311;-70
2022/09/10 10:27:40;;;;;;;11.13;8.93;;;16.20;99.90;;;;;;5088175;28;20403;-70
2022/09/10 10:30:06;;;;;;;11.15;8.88;;;16.20;99.90;;;;;;5074022;28;20260;-70
2022/09/10 10:32:47;;;;;;;11.35;9.25;;;16.20;99.90;;;;;;5062683;28;20182;-70
2022/09/10 10:35:46;;;;;;;12.27;10.18;;;16.20;99.90;;;;;;5052318;28;20175;-70
2022/09/10 10:38:30;;;;;;;12.52;9.52;;;16.20;99.90;;;;;;5052894;28;20598;-70
2022/09/10 10:41:24;;;;;;;12.70;8.45;;;16.30;99.90;;;;;;5052245;28;20205;-70
2022/09/10 10:44:15;;;;;;;12.38;9.55;;;16.30;99.90;;;;;;5053421;28;20194;-70
2022/09/10 10:47:08;;;;;;;10.70;8.63;;;16.30;99.90;;;;;;5053399;28;20194;-69
2022/09/10 10:49:56;;;;;;;11.13;8.40;;;16.20;99.90;;;;;;5053256;28;20186;-70
2022/09/10 10:52:40;;;;;;;16.60;9.60;;;16.20;99.90;;;;;;5053070;28;20623;-70
2022/09/10 10:55:22;;;;;;;12.30;9.10;;;16.20;99.90;;;;;;5053473;28;20220;-70
2022/09/10 10:58:15;;;;;;;10.45;9.18;;;16.20;99.90;;;;;;5062425;28;20198;-70
2022/09/10 11:01:13;;;;;;;10.25;9.02;;;16.20;99.90;;;;;;5073306;28;20158;-70
2022/09/10 11:03:59;;;;;;;11.88;9.27;;;16.10;99.90;;;;;;5073224;28;20214;-70
2022/09/10 11:06:34;;;;;;;11.98;9.48;;;16.10;99.90;;;;;;5080223;28;20743;-70
2022/09/10 11:09:30;;;;;;;11.98;8.02;;;16.10;99.90;;;;;;5091976;28;20196;-70
2022/09/10 11:12:14;;;;;;;11.60;8.52;;;16.00;99.90;;;;;;5093615;28;20180;-70
2022/09/10 11:15:04;;;;;;;11.73;9.68;;;16.00;99.90;;;;;;5092072;28;20196;-69
2022/09/10 11:17:40;;;;;;;10.35;7.53;;;15.90;99.90;;;;;;5091776;28;20193;-70
2022/09/10 11:20:15;;;;;;;11.73;8.63;;;15.80;99.90;;;;;;5093279;28;20236;-69
2022/09/10 11:23:10;;;;;;;11.05;8.38;;;15.70;99.90;;;;;;5091976;28;20165;-70
2022/09/10 11:25:48;;;;;;;12.15;8.68;;;15.40;99.90;;;;;;5089718;28;20604;-70
2022/09/10 11:28:19;;;;;;;10.18;9.07;;;15.30;99.90;;;;;;5078691;28;20206;-70
2022/09/10 11:30:51;;;;;;;11.10;9.93;;;15.20;99.90;;;;;;5071806;28;20178;-70
2022/09/10 11:33:46;;;;;;;16.38;10.13;;;15.10;99.90;;;;;;5072772;28;20174;-70
2022/09/10 11:36:24;;;;;;;13.38;10.63;;;15.00;99.90;;;;;;5079598;28;20535;-70
2022/09/10 11:38:53;;;;;;;12.85;11.23;;;15.00;99.90;;;;;;5092815;28;20199;-70
2022/09/10 11:41:23;;;;;;;13.23;11.35;;;14.90;99.90;;;;;;5091592;28;20605;-70
2022/09/10 11:44:07;;;;;;;13.70;10.98;;;14.90;99.90;;;;;;5092939;28;20192;-70
2022/09/10 11:46:55;;;;;;;15.93;11.50;;;14.90;99.90;;;;;;5091778;28;20193;-70
2022/09/10 11:49:28;;;;;;;17.10;11.50;;;14.90;99.90;;;;;;5093288;28;20153;-71
2022/09/10 11:51:55;;;;;;;12.43;10.65;;;14.90;99.90;;;;;;5091560;28;20168;-71
2022/09/10 11:54:27;;;;;;;14.60;11.00;;;14.80;99.90;;;;;;5092955;28;20173;-70
2022/09/10 11:57:12;;;;;;;15.50;11.07;;;14.70;99.90;;;;;;5094237;28;20171;-70
2022/09/10 12:00:07;;;;;;;11.63;10.00;;;14.70;99.90;;;;;;5077542;28;20170;-71
2022/09/10 12:02:36;;;;;;;12.38;9.80;;;14.70;99.90;;;;;;5076227;28;20174;-71
2022/09/10 12:05:02;;;;;;;14.00;9.95;;;14.60;99.90;;;;;;5076421;28;20178;-70
2022/09/10 12:08:02;;;;;;;13.35;9.10;;;14.70;99.90;;;;;;5093154;28;20281;-71
2022/09/10 12:10:44;;;;;;;12.45;9.40;;;14.60;99.90;;;;;;5095031;28;20183;-68
2022/09/10 12:13:14;;;;;;;13.13;10.05;;;14.70;99.90;;;;;;5094973;28;20655;-68
2022/09/10 12:15:47;;;;;;;10.30;9.07;;;14.70;99.90;;;;;;5096575;28;20188;-68
2022/09/10 12:18:17;;;;;;;14.45;9.30;;;14.60;99.90;;;;;;5095170;28;20201;-68
2022/09/10 12:20:53;;;;;;;13.20;9.75;;;14.80;99.90;;;;;;5096536;28;20629;-68
2022/09/10 12:23:41;;;;;;;11.65;9.23;;;14.80;99.90;;;;;;5096056;28;20232;-68
2022/09/10 12:26:11;;;;;;;10.85;8.25;;;14.80;99.90;;;;;;5096215;28;20188;-68
2022/09/10 12:28:51;;;;;;;11.70;8.88;;;14.80;99.90;;;;;;5079635;28;20201;-69
2022/09/10 12:31:21;;;;;;;9.13;7.93;;;14.90;99.90;;;;;;5075655;28;20154;-69
2022/09/10 12:33:47;;;;;;;9.25;8.20;;;15.10;99.90;;;;;;5055390;28;20174;-69
2022/09/10 12:36:26;;;;;;;10.40;8.25;;;15.20;99.90;;;;;;5068740;28;20584;-69
2022/09/10 12:39:10;;;;;;;10.82;8.75;;;15.30;99.90;;;;;;5095677;28;20197;-68
2022/09/10 12:41:36;;;;;;;9.30;7.72;;;15.40;99.90;;;;;;5095663;28;20689;-69
2022/09/10 12:44:33;;;;;;;8.73;7.20;;;15.50;99.90;;;;;;5094411;28;20207;-69
2022/09/10 12:47:15;;;;;;;8.10;7.05;;;15.50;99.90;;;;;;5092138;28;20213;-69
2022/09/10 12:49:58;;;;;;;8.52;7.25;;;15.50;99.90;;;;;;5095584;28;20252;-69
2022/09/10 12:52:43;;;;;;;8.10;7.10;;;15.60;99.90;;;;;;5094186;28;20597;-69
2022/09/10 12:55:47;;;;;;;10.13;7.35;;;15.70;99.90;;;;;;5094183;28;20176;-69
2022/09/10 12:58:15;;;;;;;13.65;9.38;;;15.70;99.90;;;;;;5081140;28;20205;-69
2022/09/10 13:00:53;;;;;;;16.77;11.07;;;15.70;99.90;;;;;;5073905;28;20170;-69
2022/09/10 13:03:25;;;;;;;12.13;9.45;;;15.60;99.90;;;;;;5075332;28;20174;-71
2022/09/10 13:05:55;;;;;;;10.73;8.95;;;15.50;99.90;;;;;;5077334;28;20295;-72